Time;durP1;ratioP1;P1;durP2;ratioP2;P2;SDS_P1;SDS_P2;PMS_P1;PMS_P2;Temp;Humidity;BMP_temperature;BMP_pressure;BME280_temperature;BME280_humidity;BME280_pressure;Samples;Min_cycle;Max_cycle;Signal;HPM_P1;HPM_P2
2023/04/22 00:00:41;;;;;;;;;;;;;;;28.15;23.55;100443.50;5096826;28;1100;-34
2023/04/22 00:03:07;;;;;;;;;;;;;;;27.91;23.93;100445.59;5107418;28;1026;-36
2023/04/22 00:05:32;;;;;;;;;;;;;;;28.02;23.90;100440.69;5096379;28;1146;-36
2023/04/22 00:07:58;;;;;;;;;;;;;;;28.28;23.76;100440.03;5096200;28;1099;-37
2023/04/22 00:10:23;;;;;;;;;;;;;;;28.50;23.54;100442.69;5096121;28;1030;-37
2023/04/22 00:12:49;;;;;;;;;;;;;;;28.28;23.99;100439.22;5096973;28;1019;-31
2023/04/22 00:15:16;;;;;;;;;;;;;;;28.18;23.81;100434.97;5101079;28;1914;-31
2023/04/22 00:17:42;;;;;;;;;;;;;;;28.30;24.07;100435.25;5096116;28;1078;-35
2023/04/22 00:20:10;;;;;;;;;;;;;;;28.22;23.89;100438.13;5096424;28;1072;-33
2023/04/22 00:22:35;;;;;;;;;;;;;;;28.20;23.74;100434.78;5103558;28;1091;-35
2023/04/22 00:25:00;;;;;;;;;;;;;;;28.18;24.16;100443.09;5096010;28;1085;-33
2023/04/22 00:27:26;;;;;;;;;;;;;;;28.47;23.60;100441.22;5107948;28;871;-32
2023/04/22 00:29:51;;;;;;;;;;;;;;;28.35;23.45;100443.66;5096407;28;1147;-36
2023/04/22 00:32:17;;;;;;;;;;;;;;;28.10;23.78;100441.38;5096332;28;1149;-32
2023/04/22 00:34:43;;;;;;;;;;;;;;;28.17;23.82;100437.88;5078120;28;1917;-35
2023/04/22 00:37:08;;;;;;;;;;;;;;;28.18;24.03;100437.69;5096159;28;1189;-32
2023/04/22 00:39:34;;;;;;;;;;;;;;;28.24;23.90;100439.59;5101865;28;897;-33
2023/04/22 00:42:00;;;;;;;;;;;;;;;28.26;24.11;100436.69;5095860;28;1197;-35
2023/04/22 00:44:26;;;;;;;;;;;;;;;28.47;23.73;100445.78;5096062;28;1259;-33
2023/04/22 00:46:51;;;;;;;;;;;;;;;28.32;23.72;100435.06;5096144;28;1117;-35
2023/04/22 00:49:17;;;;;;;;;;;;;;;28.09;24.20;100428.88;5078017;28;1106;-32
2023/04/22 00:51:42;;;;;;;;;;;;;;;28.16;24.17;100434.34;5090487;28;821;-32
2023/04/22 00:54:08;;;;;;;;;;;;;;;28.20;23.96;100440.19;5077675;28;1918;-35
2023/04/22 00:56:34;;;;;;;;;;;;;;;28.09;24.03;100433.47;5096024;28;1168;-33
2023/04/22 00:59:00;;;;;;;;;;;;;;;28.21;24.32;100429.16;5078504;28;1237;-32
2023/04/22 01:01:25;;;;;;;;;;;;;;;28.45;23.65;100431.63;5100084;28;1075;-35
2023/04/22 01:03:51;;;;;;;;;;;;;;;28.28;24.04;100439.22;5099227;28;995;-37
2023/04/22 01:06:20;;;;;;;;;;;;;;;27.42;24.48;100340.03;5100059;28;1138;-36
2023/04/22 01:08:45;;;;;;;;;;;;;;;28.17;24.29;100440.59;5081638;28;1123;-33
2023/04/22 01:11:11;;;;;;;;;;;;;;;28.26;23.95;100436.69;5099581;28;1080;-36
2023/04/22 01:13:37;;;;;;;;;;;;;;;28.13;24.27;100439.31;5099959;28;1913;-32
2023/04/22 01:16:02;;;;;;;;;;;;;;;28.09;24.44;100426.19;5099842;28;1176;-33
2023/04/22 01:18:28;;;;;;;;;;;;;;;28.37;23.97;100435.34;5080822;28;1050;-36
2023/04/22 01:20:55;;;;;;;;;;;;;;;28.50;23.82;100426.44;5099858;28;1110;-35
2023/04/22 01:23:20;;;;;;;;;;;;;;;28.08;24.31;100420.97;5106573;28;1189;-34
2023/04/22 01:25:46;;;;;;;;;;;;;;;27.83;24.78;100411.44;5082381;28;1177;-33
2023/04/22 01:28:12;;;;;;;;;;;;;;;28.31;24.16;100411.78;5087271;28;1153;-33
2023/04/22 01:30:38;;;;;;;;;;;;;;;28.21;24.30;100423.75;5099173;28;1039;-34
2023/04/22 01:33:06;;;;;;;;;;;;;;;28.09;24.36;100420.78;5081017;28;1368;-36
2023/04/22 01:35:35;;;;;;;;;;;;;;;28.34;24.20;100419.50;5099479;28;1190;-37
2023/04/22 01:38:08;;;;;;;;;;;;;;;28.55;23.86;100423.97;5082361;28;1082;-36
2023/04/22 01:40:33;;;;;;;;;;;;;;;28.41;23.91;100416.84;5099010;28;1162;-35
2023/04/22 01:42:59;;;;;;;;;;;;;;;28.01;24.21;100425.50;5080654;28;1073;-37
2023/04/22 01:45:25;;;;;;;;;;;;;;;28.43;24.02;100420.16;5099318;28;1113;-36
2023/04/22 01:47:50;;;;;;;;;;;;;;;28.55;23.99;100417.72;5098806;28;1223;-34
2023/04/22 01:50:16;;;;;;;;;;;;;;;28.14;24.10;100417.50;5102540;28;1118;-34
2023/04/22 01:52:42;;;;;;;;;;;;;;;27.71;24.60;100419.25;5103181;28;1057;-34
2023/04/22 01:55:07;;;;;;;;;;;;;;;28.01;24.66;100417.41;5081003;28;1906;-34
2023/04/22 01:57:33;;;;;;;;;;;;;;;27.68;25.05;100416.94;5098949;28;1274;-35
2023/04/22 01:59:59;;;;;;;;;;;;;;;27.77;25.08;100420.34;5080762;28;1706;-34
2023/04/22 02:02:25;;;;;;;;;;;;;;;28.27;24.70;100422.16;5102398;28;1197;-35
2023/04/22 02:04:50;;;;;;;;;;;;;;;28.05;24.28;100422.22;5098683;28;1128;-35
2023/04/22 02:07:16;;;;;;;;;;;;;;;27.62;24.93;100420.41;5080667;28;1429;-34
2023/04/22 02:09:42;;;;;;;;;;;;;;;27.83;25.09;100418.72;5080471;28;1106;-34
2023/04/22 02:12:07;;;;;;;;;;;;;;;28.17;24.34;100418.94;5097654;28;1122;-33
2023/04/22 02:14:33;;;;;;;;;;;;;;;27.54;25.03;100410.56;5112328;28;1898;-35
2023/04/22 02:17:02;;;;;;;;;;;;;;;27.82;25.24;100415.19;5104078;28;1149;-33
2023/04/22 02:19:27;;;;;;;;;;;;;;;28.22;24.35;100420.03;5080064;28;1034;-35
2023/04/22 02:21:53;;;;;;;;;;;;;;;27.62;24.70;100425.81;5087620;28;1403;-36
2023/04/22 02:24:19;;;;;;;;;;;;;;;27.59;24.75;100428.91;5098139;28;1042;-35
2023/04/22 02:26:46;;;;;;;;;;;;;;;28.22;24.47;100432.72;5102699;28;1109;-38
2023/04/22 02:29:12;;;;;;;;;;;;;;;27.99;24.25;100431.94;5080170;28;1217;-33
2023/04/22 02:31:37;;;;;;;;;;;;;;;27.56;24.78;100424.69;5097272;28;1461;-35
2023/04/22 02:34:03;;;;;;;;;;;;;;;27.83;24.83;100424.97;5098472;28;1909;-33
2023/04/22 02:36:28;;;;;;;;;;;;;;;28.35;24.56;100426.59;5098285;28;991;-37
2023/04/22 02:38:54;;;;;;;;;;;;;;;27.97;24.60;100422.34;5085356;28;2003;-33
2023/04/22 02:41:20;;;;;;;;;;;;;;;27.57;25.16;100428.25;5085681;28;1275;-34
2023/04/22 02:43:46;;;;;;;;;;;;;;;28.12;24.75;100424.97;5080116;28;1142;-35
2023/04/22 02:46:12;;;;;;;;;;;;;;;28.53;24.54;100422.53;5079702;28;1139;-33
2023/04/22 02:48:38;;;;;;;;;;;;;;;28.07;23.98;100427.41;5079763;28;1255;-35
2023/04/22 02:51:05;;;;;;;;;;;;;;;27.57;25.06;100422.84;5085004;28;1087;-34
2023/04/22 02:53:30;;;;;;;;;;;;;;;28.09;24.80;100422.66;5079382;28;1910;-33
2023/04/22 02:55:57;;;;;;;;;;;;;;;27.82;24.70;100426.00;5097476;28;1114;-35
2023/04/22 02:58:23;;;;;;;;;;;;;;;27.08;25.78;100433.34;5079425;28;1375;-32
2023/04/22 03:00:48;;;;;;;;;;;;;;;27.03;26.07;100431.22;5097120;28;1181;-34
2023/04/22 03:03:14;;;;;;;;;;;;;;;27.79;25.13;100425.56;5087110;28;1391;-36
2023/04/22 03:05:39;;;;;;;;;;;;;;;27.46;24.76;100426.91;5084989;28;1898;-32
2023/04/22 03:08:05;;;;;;;;;;;;;;;26.78;26.50;100421.59;5079260;28;2160;-32
2023/04/22 03:10:31;;;;;;;;;;;;;;;26.91;26.25;100428.16;5079299;28;1146;-32
2023/04/22 03:12:57;;;;;;;;;;;;;;;27.71;25.45;100419.25;5079396;28;1184;-33
2023/04/22 03:15:23;;;;;;;;;;;;;;;26.93;26.43;100436.91;5085382;28;1979;-34
2023/04/22 03:17:48;;;;;;;;;;;;;;;26.72;26.31;100429.59;5097514;28;967;-31
2023/04/22 03:20:14;;;;;;;;;;;;;;;27.57;25.86;100429.09;5079357;28;1217;-35
2023/04/22 03:22:40;;;;;;;;;;;;;;;27.11;25.64;100435.69;5086487;28;1429;-34
2023/04/22 03:25:09;;;;;;;;;;;;;;;26.81;26.96;100431.16;5079379;28;1140;-35
2023/04/22 03:27:35;;;;;;;;;;;;;;;27.14;26.34;100432.63;5079725;28;1150;-37
2023/04/22 03:30:00;;;;;;;;;;;;;;;27.62;25.77;100437.44;5110378;28;1042;-32
2023/04/22 03:32:26;;;;;;;;;;;;;;;26.74;26.83;100432.94;5096846;28;1097;-36
2023/04/22 03:35:07;;;;;;;;;;;;;;;26.47;26.14;100433.44;5078765;28;1906;-29
2023/04/22 03:37:32;;;;;;;;;;;;;;;27.08;25.67;100446.84;5100040;28;964;-31
2023/04/22 03:39:58;;;;;;;;;;;;;;;27.04;25.68;100448.28;5097114;28;1035;-28
2023/04/22 03:42:23;;;;;;;;;;;;;;;26.36;25.76;100448.19;5078728;28;1106;-32
2023/04/22 03:44:50;;;;;;;;;;;;;;;26.38;25.80;100456.09;5078081;28;1262;-29
2023/04/22 03:47:21;;;;;;;;;;;;;;;23.55;26.13;100450.97;5078654;28;1166;-32
2023/04/22 03:49:51;;;;;;;;;;;;;;;23.54;28.49;100467.22;5078958;28;1224;-29
2023/04/22 03:52:17;;;;;;;;;;;;;;;22.92;28.88;100466.53;5079555;28;1237;-32
2023/04/22 03:54:52;;;;;;;;;;;;;;;25.75;26.47;100470.66;5078413;28;1981;-36
2023/04/22 03:57:17;;;;;;;;;;;;;;;25.11;25.91;100470.69;5078764;28;1177;-31
2023/04/22 03:59:43;;;;;;;;;;;;;;;25.61;25.54;100480.34;5078262;28;1704;-33
2023/04/22 04:02:10;;;;;;;;;;;;;;;26.20;24.48;100480.69;5078078;28;1251;-32
2023/04/22 04:04:36;;;;;;;;;;;;;;;25.58;24.75;100491.44;5087362;28;2000;-31
2023/04/22 04:07:02;;;;;;;;;;;;;;;25.23;24.88;100495.34;5077759;28;1291;-37
2023/04/22 04:09:28;;;;;;;;;;;;;;;25.60;24.58;100492.09;5077731;28;1522;-31
2023/04/22 04:11:54;;;;;;;;;;;;;;;25.29;24.58;100496.50;5096426;28;1047;-35
2023/04/22 04:14:19;;;;;;;;;;;;;;;25.25;25.12;100500.56;5077200;28;1983;-32
2023/04/22 04:16:46;;;;;;;;;;;;;;;25.92;24.29;100501.00;5081678;28;1250;-33
2023/04/22 04:19:23;;;;;;;;;;;;;;;25.78;24.30;100508.84;5084909;28;1199;-32
2023/04/22 04:21:50;;;;;;;;;;;;;;;25.96;25.13;100509.56;5094230;28;1232;-34
2023/04/22 04:24:16;;;;;;;;;;;;;;;26.01;25.51;100515.22;5097394;28;1209;-32
2023/04/22 04:26:46;;;;;;;;;;;;;;;26.19;25.40;100512.22;5078797;28;1166;-32
2023/04/22 04:29:14;;;;;;;;;;;;;;;26.15;25.63;100519.00;5077900;28;1165;-33
2023/04/22 04:31:45;;;;;;;;;;;;;;;26.43;25.27;100515.72;5078165;28;1359;-29
2023/04/22 04:34:11;;;;;;;;;;;;;;;27.05;24.58;100522.81;5079411;28;1913;-34
2023/04/22 04:36:38;;;;;;;;;;;;;;;26.53;25.92;100516.31;5082888;28;1107;-32
2023/04/22 04:39:19;;;;;;;;;;;;;;;26.41;26.04;100521.31;5083972;28;1213;-30
2023/04/22 04:41:47;;;;;;;;;;;;;;;27.12;25.12;100538.09;5084712;28;1153;-33
2023/04/22 04:44:15;;;;;;;;;;;;;;;26.55;25.84;100534.16;5081777;28;1304;-31
2023/04/22 04:46:40;;;;;;;;;;;;;;;26.58;25.93;100548.13;5082280;28;1312;-33
2023/04/22 04:49:08;;;;;;;;;;;;;;;27.07;25.36;100553.19;5082067;28;1425;-34
2023/04/22 04:51:40;;;;;;;;;;;;;;;26.86;25.75;100557.44;5085129;28;1217;-33
2023/04/22 04:54:06;;;;;;;;;;;;;;;26.79;25.98;100557.34;5089615;28;1906;-29
2023/04/22 04:56:35;;;;;;;;;;;;;;;26.61;26.20;100560.41;5081700;28;1153;-31
2023/04/22 04:59:01;;;;;;;;;;;;;;;27.10;25.68;100559.06;5089515;28;1153;-31
2023/04/22 05:01:27;;;;;;;;;;;;;;;26.93;26.18;100568.31;5093139;28;2056;-29
2023/04/22 05:03:56;;;;;;;;;;;;;;;26.99;25.71;100573.00;5084168;28;1217;-29
2023/04/22 05:06:22;;;;;;;;;;;;;;;27.54;25.44;100580.78;5081450;28;1328;-32
2023/04/22 05:08:52;;;;;;;;;;;;;;;27.34;25.76;100575.13;5088224;28;1334;-35
2023/04/22 05:11:18;;;;;;;;;;;;;;;27.24;25.48;100565.44;5081592;28;1364;-30
2023/04/22 05:13:48;;;;;;;;;;;;;;;27.65;25.18;100576.72;5081484;28;1906;-35
2023/04/22 05:16:19;;;;;;;;;;;;;;;27.47;25.62;100577.16;5088587;28;1608;-34
2023/04/22 05:18:45;;;;;;;;;;;;;;;27.35;25.86;100579.50;5106848;28;1034;-28
2023/04/22 05:21:12;;;;;;;;;;;;;;;27.62;25.38;100579.81;5083654;28;1551;-31
2023/04/22 05:23:39;;;;;;;;;;;;;;;27.30;25.82;100581.91;5086795;28;1288;-29
2023/04/22 05:26:05;;;;;;;;;;;;;;;27.41;25.56;100577.91;5081249;28;1321;-29
2023/04/22 05:28:31;;;;;;;;;;;;;;;27.73;25.41;100586.59;5081852;28;1065;-32
2023/04/22 05:30:56;;;;;;;;;;;;;;;27.55;25.60;100582.44;5080966;28;1452;-30
2023/04/22 05:33:24;;;;;;;;;;;;;;;27.50;25.95;100580.31;5080905;28;1901;-32
2023/04/22 05:35:51;;;;;;;;;;;;;;;27.48;26.02;100581.50;5080633;28;1223;-30
2023/04/22 05:38:17;;;;;;;;;;;;;;;27.52;25.95;100585.53;5083997;28;1407;-32
2023/04/22 05:40:43;;;;;;;;;;;;;;;27.53;25.90;100591.78;5099110;28;1364;-30
2023/04/22 05:43:11;;;;;;;;;;;;;;;27.60;25.76;100588.13;5082555;28;1129;-31
2023/04/22 05:45:39;;;;;;;;;;;;;;;27.51;25.68;100594.63;5079691;28;1329;-31
2023/04/22 05:48:06;;;;;;;;;;;;;;;27.56;25.63;100594.91;5081439;28;1160;-31
2023/04/22 05:50:37;;;;;;;;;;;;;;;27.65;26.08;100597.50;5087855;28;1145;-32
2023/04/22 05:53:06;;;;;;;;;;;;;;;27.34;26.30;100594.84;5086528;28;1411;-31
2023/04/22 05:55:32;;;;;;;;;;;;;;;27.59;26.18;100605.34;5087803;28;1910;-30
2023/04/22 05:57:57;;;;;;;;;;;;;;;27.67;25.93;100604.41;5079877;28;1193;-32
2023/04/22 06:00:42;;;;;;;;;;;;;;;27.58;25.83;100605.53;5080402;28;2210;-32
2023/04/22 06:03:30;;;;;;;;;;;;;;;27.66;26.32;100610.81;5094341;28;1207;-35
2023/04/22 06:05:56;;;;;;;;;;;;;;;27.53;26.17;100607.97;5082099;28;1232;-32
2023/04/22 06:08:21;;;;;;;;;;;;;;;27.47;26.61;100610.41;5098475;28;1145;-35
2023/04/22 06:10:49;;;;;;;;;;;;;;;27.54;26.71;100615.91;5098360;28;1150;-34
2023/04/22 06:13:16;;;;;;;;;;;;;;;27.62;26.22;100623.06;5085769;28;1257;-33
2023/04/22 06:15:41;;;;;;;;;;;;;;;27.36;26.41;100613.59;5084017;28;1913;-32
2023/04/22 06:18:07;;;;;;;;;;;;;;;27.34;26.52;100618.34;5088873;28;1173;-31
2023/04/22 06:20:34;;;;;;;;;;;;;;;27.25;26.72;100615.75;5098084;28;1119;-32
2023/04/22 06:23:00;;;;;;;;;;;;;;;27.37;26.48;100620.66;5087585;28;1388;-33
2023/04/22 06:25:25;;;;;;;;;;;;;;;27.66;26.16;100613.53;5080278;28;1294;-34
2023/04/22 06:27:51;;;;;;;;;;;;;;;27.69;25.96;100610.50;5081026;28;1118;-32
2023/04/22 06:30:19;;;;;;;;;;;;;;;27.64;25.88;100623.69;5080130;28;1319;-33
2023/04/22 06:32:45;;;;;;;;;;;;;;;27.73;26.19;100624.44;5080353;28;1171;-32
2023/04/22 06:35:10;;;;;;;;;;;;;;;27.37;26.42;100615.25;5082700;28;1913;-32
2023/04/22 06:37:36;;;;;;;;;;;;;;;27.43;26.75;100628.00;5097135;28;997;-33
2023/04/22 06:40:04;;;;;;;;;;;;;;;27.30;26.92;100622.44;5087371;28;1445;-30
2023/04/22 06:42:48;;;;;;;;;;;;;;;26.95;27.17;100617.56;5107006;28;1007;-30
2023/04/22 06:45:36;;;;;;;;;;;;;;;27.34;26.66;100621.03;5104382;28;1260;-29
2023/04/22 06:48:37;;;;;;;;;;;;;;;26.90;27.21;100621.66;5092923;28;1223;-33
2023/04/22 06:51:23;;;;;;;;;;;;;;;27.03;27.14;100622.91;5079090;28;1465;-31
2023/04/22 06:53:49;;;;;;;;;;;;;;;27.51;26.65;100624.34;5062875;28;1903;-33
2023/04/22 06:56:14;;;;;;;;;;;;;;;27.57;26.16;100629.03;5083777;28;1174;-34
2023/04/22 06:58:40;;;;;;;;;;;;;;;27.66;26.39;100632.44;5096715;28;1196;-32
2023/04/22 07:01:06;;;;;;;;;;;;;;;27.75;26.36;100636.75;5079780;28;1327;-33
2023/04/22 07:03:31;;;;;;;;;;;;;;;27.71;26.03;100632.75;5079646;28;1151;-34
2023/04/22 07:06:04;;;;;;;;;;;;;;;27.17;26.76;100625.78;5090503;28;1198;-33
2023/04/22 07:08:31;;;;;;;;;;;;;;;27.31;26.48;100635.75;5062479;28;1140;-37
2023/04/22 07:10:56;;;;;;;;;;;;;;;27.33;26.60;100638.25;5090161;28;1371;-33
2023/04/22 07:13:32;;;;;;;;;;;;;;;27.10;26.74;100631.94;5078925;28;1979;-34
2023/04/22 07:16:01;;;;;;;;;;;;;;;27.29;26.68;100635.13;5097450;28;1124;-32
2023/04/22 07:18:27;;;;;;;;;;;;;;;27.46;26.46;100635.72;5102234;28;883;-33
2023/04/22 07:20:52;;;;;;;;;;;;;;;27.58;26.16;100636.09;5105088;28;1041;-31
2023/04/22 07:23:18;;;;;;;;;;;;;;;27.62;26.38;100640.09;5105598;28;1208;-32
2023/04/22 07:25:43;;;;;;;;;;;;;;;27.77;25.76;100647.38;5104058;28;1202;-32
2023/04/22 07:28:09;;;;;;;;;;;;;;;27.66;26.09;100653.25;5096922;28;1077;-34
2023/04/22 07:30:34;;;;;;;;;;;;;;;27.45;26.26;100662.94;5114162;28;1222;-34
2023/04/22 07:33:00;;;;;;;;;;;;;;;27.14;26.77;100656.72;5117391;28;1037;-34
2023/04/22 07:35:27;;;;;;;;;;;;;;;27.28;26.89;100656.91;5116404;28;2047;-35
2023/04/22 07:37:54;;;;;;;;;;;;;;;27.20;27.05;100658.66;5116568;28;1596;-32
2023/04/22 07:40:19;;;;;;;;;;;;;;;27.26;26.83;100659.78;5110968;28;1134;-35
2023/04/22 07:42:45;;;;;;;;;;;;;;;27.33;26.46;100667.97;5096061;28;964;-34
2023/04/22 07:45:10;;;;;;;;;;;;;;;27.17;27.03;100666.28;5096753;28;1196;-32
2023/04/22 07:47:36;;;;;;;;;;;;;;;27.24;26.86;100668.06;5096359;28;1070;-33
2023/04/22 07:50:02;;;;;;;;;;;;;;;27.07;27.25;100664.72;5096171;28;1003;-30
2023/04/22 07:52:28;;;;;;;;;;;;;;;27.28;26.59;100675.81;5096031;28;1077;-32
2023/04/22 07:54:54;;;;;;;;;;;;;;;27.33;26.30;100674.22;5096149;28;1902;-32
2023/04/22 07:57:22;;;;;;;;;;;;;;;27.25;26.86;100677.84;5078232;28;1185;-35
2023/04/22 07:59:48;;;;;;;;;;;;;;;27.13;27.12;100679.31;5096409;28;1205;-34
2023/04/22 08:02:14;;;;;;;;;;;;;;;27.51;26.38;100675.69;5096403;28;1002;-36
2023/04/22 08:04:39;;;;;;;;;;;;;;;27.60;26.22;100687.25;5096179;28;1142;-34
2023/04/22 08:07:05;;;;;;;;;;;;;;;27.83;26.04;100681.75;5103647;28;873;-34
2023/04/22 08:09:30;;;;;;;;;;;;;;;27.77;26.16;100682.50;5095819;28;1031;-30
2023/04/22 08:11:56;;;;;;;;;;;;;;;27.73;26.09;100679.34;5095458;28;1071;-32
2023/04/22 08:14:22;;;;;;;;;;;;;;;27.30;26.71;100680.00;5096432;28;1980;-35
2023/04/22 08:16:47;;;;;;;;;;;;;;;27.17;27.05;100666.28;5095901;28;1133;-35
2023/04/22 08:19:13;;;;;;;;;;;;;;;27.35;26.61;100674.88;5079243;28;1014;-31
2023/04/22 08:21:39;;;;;;;;;;;;;;;27.29;26.69;100672.09;5102022;28;1073;-31
2023/04/22 08:24:05;;;;;;;;;;;;;;;27.13;27.04;100666.66;5098122;28;1022;-34
2023/04/22 08:26:30;;;;;;;;;;;;;;;27.08;26.92;100670.94;5095720;28;1146;-34
2023/04/22 08:28:56;;;;;;;;;;;;;;;27.42;26.55;100663.31;5095868;28;1091;-35
2023/04/22 08:31:21;;;;;;;;;;;;;;;27.28;26.88;100662.31;5104558;28;1295;-32
2023/04/22 08:33:47;;;;;;;;;;;;;;;27.18;26.98;100662.56;5095269;28;1906;-32
2023/04/22 08:36:12;;;;;;;;;;;;;;;27.07;27.31;100662.03;5095879;28;1132;-33
2023/04/22 08:38:38;;;;;;;;;;;;;;;27.22;26.87;100663.88;5095946;28;1205;-34
2023/04/22 08:41:04;;;;;;;;;;;;;;;27.09;27.17;100659.94;5096543;28;1130;-29
2023/04/22 08:43:29;;;;;;;;;;;;;;;27.12;26.95;100656.06;5079751;28;1247;-31
2023/04/22 08:45:55;;;;;;;;;;;;;;;27.08;27.08;100658.28;5096178;28;1157;-33
2023/04/22 08:48:20;;;;;;;;;;;;;;;27.28;26.77;100659.63;5095653;28;1038;-32
2023/04/22 08:50:46;;;;;;;;;;;;;;;27.05;27.22;100658.66;5077713;28;1019;-31
2023/04/22 08:53:11;;;;;;;;;;;;;;;27.07;27.07;100664.72;5096604;28;1097;-34
2023/04/22 08:55:37;;;;;;;;;;;;;;;27.19;27.12;100659.69;5104514;28;1914;-32
2023/04/22 08:58:04;;;;;;;;;;;;;;;27.05;27.40;100655.97;5077929;28;1050;-31
2023/04/22 09:00:31;;;;;;;;;;;;;;;27.47;26.48;100656.34;5095939;28;1146;-32
2023/04/22 09:02:57;;;;;;;;;;;;;;;27.70;26.02;100652.69;5095157;28;1505;-33
2023/04/22 09:05:22;;;;;;;;;;;;;;;27.54;26.14;100664.53;5079311;28;1135;-34
2023/04/22 09:07:48;;;;;;;;;;;;;;;27.13;26.87;100657.72;5079033;28;1124;-32
2023/04/22 09:10:13;;;;;;;;;;;;;;;27.07;26.90;100661.16;5095768;28;1107;-29
2023/04/22 09:12:39;;;;;;;;;;;;;;;27.00;27.27;100655.63;5095085;28;999;-35
2023/04/22 09:15:05;;;;;;;;;;;;;;;27.18;26.95;100663.41;5095758;28;1914;-33
2023/04/22 09:17:32;;;;;;;;;;;;;;;27.20;26.87;100649.72;5079605;28;1186;-32
2023/04/22 09:19:58;;;;;;;;;;;;;;;27.24;27.02;100656.44;5115963;28;982;-32
2023/04/22 09:22:24;;;;;;;;;;;;;;;27.36;27.06;100654.13;5111433;28;1103;-31
2023/04/22 09:24:52;;;;;;;;;;;;;;;27.35;26.90;100658.66;5101233;28;1112;-30
2023/04/22 09:27:18;;;;;;;;;;;;;;;27.18;27.15;100660.72;5105280;28;1075;-34
2023/04/22 09:29:47;;;;;;;;;;;;;;;27.18;27.23;100657.16;5119084;28;1110;-29
2023/04/22 09:32:13;;;;;;;;;;;;;;;27.35;27.00;100650.56;5105800;28;1157;-36
2023/04/22 09:35:04;;;;;;;;;;;;;;;27.62;26.61;100648.22;5118959;28;1917;-33
2023/04/22 09:37:31;;;;;;;;;;;;;;;27.32;27.19;100648.25;5096602;28;1745;-30
2023/04/22 09:39:56;;;;;;;;;;;;;;;27.22;27.05;100650.38;5108481;28;1182;-30
2023/04/22 09:42:22;;;;;;;;;;;;;;;27.55;26.85;100646.44;5112626;28;1193;-29
2023/04/22 09:44:51;;;;;;;;;;;;;;;27.24;27.17;100651.03;5118107;28;1030;-34
2023/04/22 09:47:17;;;;;;;;;;;;;;;27.08;27.26;100660.97;5108408;28;1110;-31
2023/04/22 09:49:46;;;;;;;;;;;;;;;27.21;26.83;100656.81;5115648;28;1082;-31
2023/04/22 09:52:20;;;;;;;;;;;;;;;27.26;26.79;100647.13;5118962;28;1045;-33
2023/04/22 09:54:50;;;;;;;;;;;;;;;27.09;27.17;100648.34;5117548;28;1914;-34
2023/04/22 09:57:16;;;;;;;;;;;;;;;27.25;27.04;100653.56;5118420;28;1042;-31
2023/04/22 09:59:41;;;;;;;;;;;;;;;27.19;27.13;100657.00;5113568;28;1158;-32
2023/04/22 10:02:08;;;;;;;;;;;;;;;27.41;27.17;100653.53;5109743;28;1010;-30
2023/04/22 10:04:33;;;;;;;;;;;;;;;27.33;27.31;100649.91;5090612;28;1055;-35
2023/04/22 10:07:01;;;;;;;;;;;;;;;27.19;27.03;100648.91;5099438;28;1018;-33
2023/04/22 10:09:27;;;;;;;;;;;;;;;27.29;27.20;100651.31;5107731;28;1052;-36
2023/04/22 10:11:53;;;;;;;;;;;;;;;27.43;27.08;100655.03;5101698;28;1034;-33
2023/04/22 10:14:20;;;;;;;;;;;;;;;27.26;27.04;100644.41;5108550;28;1983;-31
2023/04/22 10:16:46;;;;;;;;;;;;;;;27.14;27.41;100649.44;5098516;28;1094;-35
2023/04/22 10:19:14;;;;;;;;;;;;;;;27.80;26.74;100656.94;5108245;28;891;-36
2023/04/22 10:21:40;;;;;;;;;;;;;;;27.31;27.37;100656.53;5086530;28;1082;-36
2023/04/22 10:24:06;;;;;;;;;;;;;;;27.20;27.50;100658.66;5118159;28;1045;-36
2023/04/22 10:26:50;;;;;;;;;;;;;;;27.58;27.00;100648.75;5098996;28;1094;-29
2023/04/22 10:29:17;;;;;;;;;;;;;;;27.31;27.12;100646.53;5084512;28;1203;-33
2023/04/22 10:31:43;;;;;;;;;;;;;;;27.21;27.12;100644.13;5097288;28;1125;-31
2023/04/22 10:34:13;;;;;;;;;;;;;;;27.48;27.27;100649.06;5113090;28;1909;-34
2023/04/22 10:36:57;;;;;;;;;;;;;;;27.43;27.26;100637.97;5117949;28;1023;-36
2023/04/22 10:39:23;;;;;;;;;;;;;;;27.51;26.67;100641.41;5117460;28;1065;-33
2023/04/22 10:41:52;;;;;;;;;;;;;;;27.38;27.03;100649.34;5118185;28;1085;-33
2023/04/22 10:44:18;;;;;;;;;;;;;;;27.43;27.04;100646.06;5098497;28;996;-34
2023/04/22 10:46:50;;;;;;;;;;;;;;;27.26;27.16;100641.72;5096630;28;1035;-33
2023/04/22 10:49:25;;;;;;;;;;;;;;;27.30;27.11;100646.72;5103103;28;1165;-31
2023/04/22 10:51:53;;;;;;;;;;;;;;;27.36;27.12;100646.81;5103722;28;1102;-32
2023/04/22 10:54:25;;;;;;;;;;;;;;;27.34;27.36;100640.78;5116766;28;1975;-35
2023/04/22 10:57:00;;;;;;;;;;;;;;;27.28;27.19;100638.00;5103432;28;1184;-31
2023/04/22 10:59:26;;;;;;;;;;;;;;;27.55;26.73;100646.44;5099011;28;1102;-33
2023/04/22 11:01:52;;;;;;;;;;;;;;;27.47;27.05;100642.84;5112415;28;1086;-34
2023/04/22 11:04:21;;;;;;;;;;;;;;;27.34;27.29;100640.78;5109854;28;1110;-32
2023/04/22 11:07:05;;;;;;;;;;;;;;;27.54;26.82;100633.97;5107049;28;1050;-33
2023/04/22 11:09:31;;;;;;;;;;;;;;;27.41;27.17;100638.16;5097098;28;1034;-33
2023/04/22 11:12:16;;;;;;;;;;;;;;;27.39;27.41;100635.66;5110708;28;1138;-31
2023/04/22 11:14:42;;;;;;;;;;;;;;;27.59;26.85;100643.16;5110965;28;1982;-32
2023/04/22 11:17:07;;;;;;;;;;;;;;;27.48;26.94;100639.09;5091339;28;1118;-31
2023/04/22 11:19:33;;;;;;;;;;;;;;;27.44;27.25;100645.06;5111215;28;1118;-33
2023/04/22 11:21:59;;;;;;;;;;;;;;;27.41;27.05;100627.34;5115440;28;1168;-33
2023/04/22 11:24:24;;;;;;;;;;;;;;;27.46;27.28;100648.44;5098468;28;1047;-32
2023/04/22 11:26:53;;;;;;;;;;;;;;;27.28;27.19;100641.53;5116679;28;1026;-32
2023/04/22 11:29:18;;;;;;;;;;;;;;;27.20;27.18;100647.88;5097173;28;1136;-35
2023/04/22 11:31:47;;;;;;;;;;;;;;;27.45;27.29;100649.44;5104410;28;1427;-31
2023/04/22 11:34:13;;;;;;;;;;;;;;;27.29;27.49;100640.53;5098301;28;1897;-31
2023/04/22 11:36:41;;;;;;;;;;;;;;;27.34;27.17;100642.66;5116932;28;1133;-33
2023/04/22 11:39:07;;;;;;;;;;;;;;;27.84;26.84;100637.44;5115335;28;1073;-34
2023/04/22 11:41:33;;;;;;;;;;;;;;;27.35;27.34;100636.22;5108381;28;1221;-33
2023/04/22 11:43:59;;;;;;;;;;;;;;;27.33;27.65;100643.66;5099234;28;1202;-33
2023/04/22 11:46:37;;;;;;;;;;;;;;;27.33;27.43;100641.81;5096196;28;1222;-33
2023/04/22 11:49:15;;;;;;;;;;;;;;;27.20;27.35;100636.22;5109899;28;1206;-33
2023/04/22 11:51:55;;;;;;;;;;;;;;;27.67;26.99;100641.38;5106729;28;1234;-33
2023/04/22 11:54:34;;;;;;;;;;;;;;;27.14;27.81;100635.94;5111518;28;1905;-34
2023/04/22 11:57:01;;;;;;;;;;;;;;;27.33;27.24;100640.97;5107800;28;1202;-35
2023/04/22 11:59:27;;;;;;;;;;;;;;;27.62;27.05;100639.25;5111532;28;1213;-32
2023/04/22 12:01:53;;;;;;;;;;;;;;;27.43;27.08;100640.66;5103329;28;1189;-35
2023/04/22 12:04:21;;;;;;;;;;;;;;;27.29;27.47;100639.66;5102686;28;1197;-33
2023/04/22 12:06:48;;;;;;;;;;;;;;;27.28;27.69;100638.00;5103935;28;1178;-31
2023/04/22 12:09:13;;;;;;;;;;;;;;;27.31;27.54;100634.94;5101118;28;1276;-29
2023/04/22 12:11:39;;;;;;;;;;;;;;;27.72;27.07;100636.28;5081509;28;1278;-31
2023/04/22 12:14:05;;;;;;;;;;;;;;;27.23;27.76;100631.28;5109223;28;1972;-31
2023/04/22 12:16:38;;;;;;;;;;;;;;;27.04;27.64;100637.25;5096611;28;1372;-35
2023/04/22 12:19:03;;;;;;;;;;;;;;;27.29;27.71;100634.28;5095806;28;1221;-33
2023/04/22 12:21:30;;;;;;;;;;;;;;;27.21;27.67;100636.03;5098543;28;1285;-33
2023/04/22 12:23:59;;;;;;;;;;;;;;;27.69;27.41;100640.22;5109203;28;1276;-33
2023/04/22 12:26:28;;;;;;;;;;;;;;;27.32;27.83;100640.13;5104389;28;1112;-32
2023/04/22 12:28:54;;;;;;;;;;;;;;;27.19;27.52;100635.41;5101916;28;1146;-30
2023/04/22 12:31:20;;;;;;;;;;;;;;;27.51;27.01;100633.31;5105022;28;1704;-31
2023/04/22 12:33:46;;;;;;;;;;;;;;;27.18;27.84;100639.09;5113452;28;1971;-35
2023/04/22 12:36:12;;;;;;;;;;;;;;;27.33;27.54;100635.56;5105671;28;1160;-30
2023/04/22 12:38:37;;;;;;;;;;;;;;;27.22;27.45;100645.81;5113249;28;1078;-32
2023/04/22 12:41:03;;;;;;;;;;;;;;;27.19;27.79;100646.19;5105516;28;1157;-33
2023/04/22 12:43:31;;;;;;;;;;;;;;;27.28;27.97;100655.03;5109134;28;1193;-33
2023/04/22 12:45:57;;;;;;;;;;;;;;;27.38;27.25;100650.19;5106748;28;1202;-32
2023/04/22 12:48:22;;;;;;;;;;;;;;;27.37;27.60;100642.28;5079705;28;1095;-30